Time;durP1;ratioP1;P1;durP2;ratioP2;P2;SDS_P1;SDS_P2;PMS_P1;PMS_P2;Temp;Humidity;BMP_temperature;BMP_pressure;BME280_temperature;BME280_humidity;BME280_pressure;Samples;Min_cycle;Max_cycle;Signal;HPM_P1;HPM_P2
2020/12/04 00:00:32;;;;;;;8.23;6.47;;;6.00;99.90;;;;;;5030392;28;20234;-82
2020/12/04 00:02:58;;;;;;;6.97;5.83;;;6.00;99.90;;;;;;5030342;28;20512;-82
2020/12/04 00:05:26;;;;;;;6.67;6.07;;;5.90;99.90;;;;;;5030130;28;20206;-82
2020/12/04 00:07:52;;;;;;;6.73;5.77;;;6.00;99.90;;;;;;5030940;28;20206;-84
2020/12/04 00:10:18;;;;;;;6.23;5.63;;;5.90;99.90;;;;;;5030093;28;20591;-83
2020/12/04 00:12:45;;;;;;;6.83;6.17;;;5.90;99.90;;;;;;5030301;28;20221;-83
2020/12/04 00:15:11;;;;;;;6.80;6.10;;;5.90;99.90;;;;;;5030869;28;20209;-83
2020/12/04 00:17:37;;;;;;;7.97;6.33;;;5.90;99.90;;;;;;5030022;28;20225;-81
2020/12/04 00:20:04;;;;;;;7.50;5.73;;;6.00;99.90;;;;;;5029852;28;20226;-82
2020/12/04 00:22:32;;;;;;;6.20;5.60;;;6.00;99.90;;;;;;5030191;28;20199;-83
2020/12/04 00:24:58;;;;;;;6.10;5.50;;;5.90;99.90;;;;;;5029988;28;20571;-83
2020/12/04 00:27:25;;;;;;;6.10;5.50;;;6.00;99.90;;;;;;5030346;28;20231;-83
2020/12/04 00:29:51;;;;;;;6.00;5.40;;;6.00;99.90;;;;;;5029782;28;20198;-84
2020/12/04 00:32:17;;;;;;;7.23;5.87;;;6.00;99.90;;;;;;5029555;28;20553;-83
2020/12/04 00:34:44;;;;;;;7.33;6.63;;;6.00;99.90;;;;;;5029482;28;20199;-82
2020/12/04 00:37:12;;;;;;;7.40;6.70;;;6.00;99.90;;;;;;5030362;28;20198;-86
2020/12/04 00:39:39;;;;;;;7.40;6.40;;;6.00;99.90;;;;;;5028697;28;20551;-83
2020/12/04 00:42:05;;;;;;;7.67;6.97;;;6.00;99.90;;;;;;5029211;28;20217;-82
2020/12/04 00:44:31;;;;;;;8.83;7.03;;;5.90;99.90;;;;;;5029643;28;20218;-83
2020/12/04 00:46:59;;;;;;;8.90;6.57;;;5.90;99.90;;;;;;5029404;28;20241;-83
2020/12/04 00:49:26;;;;;;;7.70;6.90;;;6.00;99.90;;;;;;5029807;28;20281;-83
2020/12/04 00:51:53;;;;;;;7.67;6.97;;;5.90;99.90;;;;;;5029270;28;20217;-84
2020/12/04 00:54:19;;;;;;;8.63;6.97;;;5.90;99.90;;;;;;5028559;28;20207;-82
2020/12/04 00:56:46;;;;;;;7.30;6.50;;;5.90;99.90;;;;;;5030103;28;20195;-84
2020/12/04 00:59:12;;;;;;;7.80;6.87;;;5.90;99.90;;;;;;5026937;28;20245;-83
2020/12/04 01:01:38;;;;;;;7.47;6.77;;;5.90;99.90;;;;;;5028950;28;20210;-82
2020/12/04 01:04:05;;;;;;;7.37;6.67;;;5.90;99.90;;;;;;5028385;28;20210;-82
2020/12/04 01:06:31;;;;;;;8.33;7.43;;;5.90;99.90;;;;;;5029512;28;20209;-84
2020/12/04 01:08:57;;;;;;;7.87;7.07;;;5.90;99.90;;;;;;5029118;28;20589;-83
2020/12/04 01:11:25;;;;;;;7.77;6.70;;;5.90;99.90;;;;;;5030026;28;20206;-84
2020/12/04 01:13:52;;;;;;;9.77;6.27;;;5.90;99.90;;;;;;5029048;28;20206;-83
2020/12/04 01:16:19;;;;;;;8.57;7.67;;;5.90;99.90;;;;;;5029753;28;20210;-84
2020/12/04 01:18:45;;;;;;;8.57;7.10;;;5.90;99.90;;;;;;5029595;28;20208;-83
2020/12/04 01:21:12;;;;;;;8.60;7.77;;;5.90;99.90;;;;;;5029364;28;20670;-84
2020/12/04 01:23:39;;;;;;;8.47;7.57;;;5.90;99.90;;;;;;5029229;28;20241;-83
2020/12/04 01:26:05;;;;;;;7.77;6.97;;;5.90;99.90;;;;;;5029999;28;20262;-85
2020/12/04 01:28:32;;;;;;;9.30;8.07;;;5.90;99.90;;;;;;5029479;28;20230;-84
2020/12/04 01:30:59;;;;;;;9.67;8.03;;;5.90;99.90;;;;;;5029415;28;20195;-85
2020/12/04 01:33:25;;;;;;;9.90;8.40;;;5.90;99.90;;;;;;5029918;28;20198;-84
2020/12/04 01:35:52;;;;;;;9.43;8.40;;;5.90;99.90;;;;;;5029693;28;20195;-82
2020/12/04 01:38:18;;;;;;;10.80;8.53;;;5.80;99.90;;;;;;5029120;28;20595;-84
2020/12/04 01:40:44;;;;;;;8.43;7.53;;;5.80;99.90;;;;;;5029397;28;20226;-85
2020/12/04 01:43:11;;;;;;;8.40;7.40;;;5.80;99.90;;;;;;5028964;28;20730;-84
2020/12/04 01:45:37;;;;;;;9.83;7.90;;;5.80;99.90;;;;;;5029112;28;20595;-82
2020/12/04 01:48:05;;;;;;;9.00;7.73;;;5.80;99.90;;;;;;5029242;28;20203;-82
2020/12/04 01:50:31;;;;;;;9.27;7.97;;;5.80;99.90;;;;;;5029540;28;20194;-88
2020/12/04 01:52:58;;;;;;;8.37;7.47;;;5.80;99.90;;;;;;5030860;28;20668;-83
2020/12/04 01:55:25;;;;;;;11.07;8.13;;;5.90;99.90;;;;;;5033060;28;20211;-83
2020/12/04 01:57:54;;;;;;;8.97;8.03;;;5.80;99.90;;;;;;5032602;28;20230;-85
2020/12/04 02:00:21;;;;;;;10.33;8.40;;;5.80;99.90;;;;;;5032931;28;20237;-87
2020/12/04 02:02:48;;;;;;;10.50;8.33;;;5.90;99.90;;;;;;5032402;28;20603;-85
2020/12/04 02:05:16;;;;;;;9.30;8.13;;;5.90;99.90;;;;;;5032461;28;20342;-84
2020/12/04 02:07:50;;;;;;;10.60;7.97;;;5.80;99.90;;;;;;5033094;28;20215;-83
2020/12/04 02:10:26;;;;;;;9.53;8.30;;;5.80;99.90;;;;;;5033266;28;20218;-85
2020/12/04 02:12:54;;;;;;;9.67;7.73;;;5.80;99.90;;;;;;5033758;28;20498;-84
2020/12/04 02:15:21;;;;;;;8.63;7.47;;;5.80;99.90;;;;;;5032801;28;20198;-88
2020/12/04 02:17:54;;;;;;;11.43;7.57;;;5.80;99.90;;;;;;5032516;28;20210;-85
2020/12/04 02:20:21;;;;;;;10.40;7.90;;;5.80;99.90;;;;;;5032427;28;20246;-82
2020/12/04 02:22:49;;;;;;;8.30;7.40;;;5.80;99.90;;;;;;5033472;28;20368;-84
2020/12/04 02:25:15;;;;;;;8.60;7.23;;;5.80;99.90;;;;;;5026933;28;20207;-85
2020/12/04 02:27:46;;;;;;;10.03;7.77;;;5.80;99.90;;;;;;5013195;28;20207;-84
2020/12/04 02:30:17;;;;;;;9.17;7.53;;;5.80;99.90;;;;;;5012432;28;20210;-86
2020/12/04 02:32:43;;;;;;;9.03;7.60;;;5.80;99.90;;;;;;5012605;28;20203;-85
2020/12/04 02:35:09;;;;;;;8.47;7.37;;;5.80;99.90;;;;;;5011477;28;20203;-86
2020/12/04 02:37:36;;;;;;;9.33;7.30;;;5.80;99.90;;;;;;5012143;28;20203;-84
2020/12/04 02:40:03;;;;;;;8.43;7.30;;;5.80;99.90;;;;;;5012926;28;20227;-84
2020/12/04 02:42:29;;;;;;;7.63;6.80;;;5.80;99.90;;;;;;5011974;28;20207;-85
2020/12/04 02:44:55;;;;;;;10.03;6.77;;;5.80;99.90;;;;;;5012254;28;20199;-84
2020/12/04 02:47:25;;;;;;;8.80;7.00;;;5.80;99.90;;;;;;5012503;28;20206;-85
2020/12/04 02:49:51;;;;;;;7.70;6.57;;;5.80;99.90;;;;;;5012523;28;20231;-84
2020/12/04 02:52:21;;;;;;;9.20;7.17;;;5.80;99.90;;;;;;5011782;28;20206;-83
2020/12/04 02:54:47;;;;;;;9.17;6.93;;;5.70;99.90;;;;;;5012333;28;20202;-85
2020/12/04 02:57:14;;;;;;;9.23;6.67;;;5.70;99.90;;;;;;5011988;28;20192;-85
2020/12/04 02:59:40;;;;;;;7.93;6.47;;;5.70;99.90;;;;;;5009262;28;20246;-84
2020/12/04 03:02:07;;;;;;;8.57;6.20;;;5.80;99.90;;;;;;5009234;28;20207;-85
2020/12/04 03:04:33;;;;;;;9.07;7.23;;;5.70;99.90;;;;;;5008842;28;20211;-81
2020/12/04 03:06:59;;;;;;;10.03;7.30;;;5.70;99.90;;;;;;5008510;28;20211;-81
2020/12/04 03:09:25;;;;;;;9.37;6.87;;;5.70;99.90;;;;;;5009115;28;20207;-82
2020/12/04 03:11:54;;;;;;;7.60;6.33;;;5.70;99.90;;;;;;5009785;28;20202;-82
2020/12/04 03:14:21;;;;;;;8.50;7.03;;;5.80;99.90;;;;;;5006203;28;20242;-82
2020/12/04 03:16:47;;;;;;;8.90;6.60;;;5.80;99.90;;;;;;5006504;28;20219;-82
2020/12/04 03:19:14;;;;;;;7.47;6.67;;;5.80;99.90;;;;;;5006658;28;20858;-81
2020/12/04 03:21:40;;;;;;;8.10;6.50;;;5.70;99.90;;;;;;5007271;28;20211;-82
2020/12/04 03:24:06;;;;;;;10.33;6.73;;;5.80;99.90;;;;;;5007941;28;20203;-82
2020/12/04 03:26:32;;;;;;;7.90;6.07;;;5.80;99.90;;;;;;5023637;28;20233;-82
2020/12/04 03:28:58;;;;;;;8.47;6.90;;;5.80;99.90;;;;;;5026679;28;20222;-81
2020/12/04 03:31:26;;;;;;;7.47;6.27;;;5.80;99.90;;;;;;5028058;28;20207;-80
2020/12/04 03:33:52;;;;;;;8.43;6.43;;;5.80;99.90;;;;;;5028018;28;20475;-78
2020/12/04 03:36:18;;;;;;;7.23;6.20;;;5.80;99.90;;;;;;5027495;28;20198;-82
2020/12/04 03:38:44;;;;;;;7.93;6.77;;;5.80;99.90;;;;;;5028612;28;20457;-79
2020/12/04 03:41:11;;;;;;;8.13;6.10;;;5.80;99.90;;;;;;5027829;28;20305;-81
2020/12/04 03:43:40;;;;;;;6.73;6.03;;;5.80;99.90;;;;;;5027134;28;20295;-80
2020/12/04 03:46:07;;;;;;;6.93;6.10;;;5.80;99.90;;;;;;5026890;28;20584;-79
2020/12/04 03:48:34;;;;;;;9.93;6.73;;;5.80;99.90;;;;;;5027542;28;20203;-77
2020/12/04 03:51:01;;;;;;;9.17;6.13;;;5.80;99.90;;;;;;5026580;28;20796;-79
2020/12/04 03:53:27;;;;;;;7.73;5.90;;;5.80;99.90;;;;;;5026903;28;20206;-80
2020/12/04 03:55:53;;;;;;;7.93;5.87;;;5.80;99.90;;;;;;5026493;28;20514;-78
2020/12/04 03:58:19;;;;;;;6.97;5.73;;;5.80;99.90;;;;;;5026648;28;20242;-79
2020/12/04 04:00:45;;;;;;;7.77;5.80;;;5.80;99.90;;;;;;5026992;28;20230;-81
2020/12/04 04:03:12;;;;;;;6.53;5.47;;;5.80;99.90;;;;;;5025555;28;20206;-81
2020/12/04 04:05:40;;;;;;;8.37;5.70;;;5.80;99.90;;;;;;5024802;28;20210;-82
2020/12/04 04:08:06;;;;;;;6.60;5.37;;;5.80;99.90;;;;;;5028826;28;20202;-83
2020/12/04 04:10:32;;;;;;;6.70;5.60;;;5.90;99.90;;;;;;5031276;28;20205;-83
2020/12/04 04:12:58;;;;;;;6.10;5.20;;;5.90;99.90;;;;;;5030646;28;20673;-84
2020/12/04 04:15:25;;;;;;;6.60;5.90;;;5.90;99.90;;;;;;5030697;28;20649;-81
2020/12/04 04:17:51;;;;;;;7.20;4.87;;;5.90;99.90;;;;;;5031495;28;20206;-83
2020/12/04 04:20:17;;;;;;;6.07;4.90;;;5.90;99.90;;;;;;5030489;28;20225;-84
2020/12/04 04:22:44;;;;;;;5.30;4.57;;;6.00;99.90;;;;;;5030400;28;20545;-82
2020/12/04 04:25:12;;;;;;;6.37;4.87;;;6.00;99.90;;;;;;5030462;28;20222;-81
2020/12/04 04:27:39;;;;;;;6.13;5.07;;;6.00;99.90;;;;;;5030308;28;20911;-86
2020/12/04 04:30:05;;;;;;;6.67;5.13;;;6.00;99.90;;;;;;5029692;28;20205;-81
2020/12/04 04:32:31;;;;;;;5.43;4.57;;;6.00;99.90;;;;;;5030726;28;20645;-82
2020/12/04 04:34:58;;;;;;;5.37;4.30;;;6.10;99.90;;;;;;5030737;28;20210;-83
2020/12/04 04:37:24;;;;;;;4.97;4.40;;;6.10;99.90;;;;;;5031086;28;20194;-83
2020/12/04 04:39:51;;;;;;;5.23;4.60;;;6.10;99.90;;;;;;5030481;28;20225;-83
2020/12/04 04:42:18;;;;;;;5.33;4.83;;;6.10;99.90;;;;;;5030771;28;20999;-84
2020/12/04 04:44:44;;;;;;;5.70;4.47;;;6.00;99.90;;;;;;5030899;28;20202;-83
2020/12/04 04:47:13;;;;;;;5.13;4.33;;;6.10;99.90;;;;;;5029744;28;20603;-83
2020/12/04 04:49:45;;;;;;;4.27;3.77;;;6.00;99.90;;;;;;5029222;28;20203;-84
2020/12/04 04:52:12;;;;;;;4.73;4.17;;;6.10;99.90;;;;;;5030232;28;20511;-83
2020/12/04 04:54:43;;;;;;;5.27;4.60;;;6.10;99.90;;;;;;5030739;28;20206;-83
2020/12/04 04:57:11;;;;;;;4.63;4.10;;;6.10;99.90;;;;;;5029818;28;20861;-83
2020/12/04 04:59:37;;;;;;;4.70;3.83;;;6.10;99.90;;;;;;5028891;28;20235;-84
2020/12/04 05:02:03;;;;;;;4.80;3.90;;;6.10;99.90;;;;;;5029436;28;20209;-82
2020/12/04 05:04:48;;;;;;;4.80;3.80;;;6.20;99.90;;;;;;5029329;28;20199;-82
2020/12/04 05:07:17;;;;;;;4.00;3.60;;;6.20;99.90;;;;;;5028959;28;20206;-84
2020/12/04 05:09:44;;;;;;;5.03;3.70;;;6.20;99.90;;;;;;5029704;28;20697;-83
2020/12/04 05:12:16;;;;;;;4.00;3.57;;;6.20;99.90;;;;;;5028668;28;20293;-83
2020/12/04 05:14:42;;;;;;;5.40;3.07;;;6.20;99.90;;;;;;5029288;28;20210;-84
2020/12/04 05:17:09;;;;;;;3.70;3.33;;;6.20;99.90;;;;;;5029706;28;20206;-81
2020/12/04 05:19:37;;;;;;;4.83;3.73;;;6.20;99.90;;;;;;5030273;28;20543;-83
2020/12/04 05:22:13;;;;;;;3.40;3.10;;;6.20;99.90;;;;;;5028421;28;20890;-84
2020/12/04 05:24:40;;;;;;;4.70;3.30;;;6.30;99.90;;;;;;5029653;28;20213;-86
2020/12/04 05:27:27;;;;;;;4.27;3.20;;;6.20;99.90;;;;;;5028906;28;20630;-83
2020/12/04 05:29:55;;;;;;;4.23;2.97;;;6.20;99.90;;;;;;5029947;28;20920;-84
2020/12/04 05:32:21;;;;;;;3.07;2.63;;;6.20;99.90;;;;;;5029264;28;20194;-82
2020/12/04 05:34:47;;;;;;;2.73;2.47;;;6.20;99.90;;;;;;5029111;28;20197;-83
2020/12/04 05:37:18;;;;;;;3.23;2.93;;;6.20;99.90;;;;;;5029249;28;20207;-87
2020/12/04 05:39:47;;;;;;;3.87;2.87;;;6.10;99.90;;;;;;5028946;28;20541;-82
2020/12/04 05:42:29;;;;;;;3.23;2.87;;;6.10;99.90;;;;;;5029028;28;20202;-83
2020/12/04 05:44:56;;;;;;;3.10;2.63;;;6.10;99.90;;;;;;5029438;28;20210;-83
2020/12/04 05:47:35;;;;;;;3.87;2.97;;;6.10;99.90;;;;;;5029800;28;20198;-83
2020/12/04 05:50:01;;;;;;;2.80;2.40;;;6.10;99.90;;;;;;5028526;28;20213;-83
2020/12/04 05:52:27;;;;;;;2.80;2.60;;;6.10;99.90;;;;;;5028696;28;20947;-86
2020/12/04 05:54:54;;;;;;;2.47;2.17;;;6.10;99.90;;;;;;5028868;28;20211;-83
2020/12/04 05:57:21;;;;;;;2.30;2.10;;;6.10;99.90;;;;;;5029419;28;20198;-83
2020/12/04 05:59:49;;;;;;;3.33;2.10;;;6.10;99.90;;;;;;5029202;28;20234;-84
2020/12/04 06:02:16;;;;;;;2.80;2.50;;;6.10;99.90;;;;;;5029172;28;20199;-84
2020/12/04 06:04:43;;;;;;;2.60;2.40;;;6.10;99.90;;;;;;5029627;28;20214;-81
2020/12/04 06:07:12;;;;;;;4.20;2.30;;;6.20;99.90;;;;;;5028889;28;20237;-82
2020/12/04 06:09:40;;;;;;;2.63;2.10;;;6.20;99.90;;;;;;5029192;28;20237;-82
2020/12/04 06:12:11;;;;;;;2.40;2.00;;;6.30;99.90;;;;;;5029031;28;20202;-80
2020/12/04 06:14:38;;;;;;;2.77;2.40;;;6.30;99.90;;;;;;5029141;28;20191;-85
2020/12/04 06:17:12;;;;;;;2.23;1.90;;;6.30;99.90;;;;;;5029017;28;20203;-82
2020/12/04 06:19:40;;;;;;;2.47;1.93;;;6.40;99.90;;;;;;5028362;28;20213;-83
2020/12/04 06:22:08;;;;;;;2.30;2.00;;;6.30;99.90;;;;;;5028420;28;20202;-84
2020/12/04 06:25:00;;;;;;;2.17;1.97;;;6.30;99.90;;;;;;5028072;28;20217;-82
2020/12/04 06:27:41;;;;;;;2.27;1.93;;;6.30;99.90;;;;;;5028566;28;20277;-85
2020/12/04 06:30:09;;;;;;;2.60;2.00;;;6.30;99.90;;;;;;5028751;28;20370;-87
2020/12/04 06:32:38;;;;;;;4.60;1.57;;;6.40;99.90;;;;;;5028587;28;20257;-82
2020/12/04 06:35:06;;;;;;;3.83;1.93;;;6.50;99.90;;;;;;5027866;28;20669;-82
2020/12/04 06:37:37;;;;;;;1.90;1.60;;;6.50;99.90;;;;;;5027521;28;20229;-80
2020/12/04 06:40:23;;;;;;;2.90;2.13;;;6.50;99.90;;;;;;5030188;28;20615;-82
2020/12/04 06:42:49;;;;;;;2.83;1.53;;;6.50;99.90;;;;;;5031000;28;20581;-86
2020/12/04 06:45:16;;;;;;;2.90;1.60;;;6.50;99.90;;;;;;5029631;28;20298;-82
2020/12/04 06:47:43;;;;;;;2.00;1.70;;;6.50;99.90;;;;;;5029855;28;20198;-82
2020/12/04 06:50:10;;;;;;;2.23;1.70;;;6.60;99.90;;;;;;5029707;28;20662;-79
2020/12/04 06:52:37;;;;;;;1.53;1.43;;;6.60;99.90;;;;;;5028644;28;20234;-79
2020/12/04 06:55:03;;;;;;;1.53;1.20;;;6.60;99.90;;;;;;5029579;28;20234;-78
2020/12/04 06:57:30;;;;;;;2.87;1.47;;;6.60;99.90;;;;;;5029028;28;20201;-83
2020/12/04 06:59:56;;;;;;;2.47;1.40;;;6.60;99.90;;;;;;5030796;28;20239;-81
2020/12/04 07:02:24;;;;;;;2.40;1.50;;;6.70;99.90;;;;;;5031449;28;20626;-83
2020/12/04 07:04:53;;;;;;;1.60;1.37;;;6.70;99.90;;;;;;5031458;28;20206;-85
2020/12/04 07:07:20;;;;;;;2.30;1.37;;;6.80;99.90;;;;;;5031786;28;20213;-85
2020/12/04 07:09:55;;;;;;;3.17;1.60;;;6.80;99.90;;;;;;5031351;28;20218;-85
2020/12/04 07:12:23;;;;;;;1.90;1.47;;;6.90;99.90;;;;;;5031275;28;20529;-84
2020/12/04 07:14:50;;;;;;;2.40;1.30;;;6.90;99.90;;;;;;5031886;28;20202;-83
2020/12/04 07:17:18;;;;;;;1.67;1.50;;;6.90;99.90;;;;;;5031321;28;20595;-88
2020/12/04 07:19:45;;;;;;;3.47;1.30;;;6.90;99.90;;;;;;5031429;28;20207;-86
2020/12/04 07:22:14;;;;;;;1.20;1.10;;;6.90;99.90;;;;;;5031632;28;20765;-85
2020/12/04 07:24:40;;;;;;;1.20;0.90;;;6.90;99.90;;;;;;5030755;28;20226;-86
2020/12/04 07:27:07;;;;;;;1.77;0.93;;;6.90;99.90;;;;;;5011596;28;20222;-88
2020/12/04 07:29:38;;;;;;;2.00;1.10;;;7.00;99.90;;;;;;5012014;28;20214;-87
2020/12/04 07:32:04;;;;;;;1.57;1.37;;;7.00;99.90;;;;;;5011760;28;20196;-79
2020/12/04 07:34:35;;;;;;;1.17;1.07;;;6.90;99.90;;;;;;5010957;28;20191;-87
2020/12/04 07:37:03;;;;;;;1.73;1.50;;;6.90;99.90;;;;;;5010564;28;20476;-88
2020/12/04 07:39:32;;;;;;;3.03;1.40;;;6.90;99.90;;;;;;5010998;28;20214;-80
2020/12/04 07:41:59;;;;;;;1.23;1.00;;;6.90;99.90;;;;;;5010234;28;20366;-86
2020/12/04 07:44:34;;;;;;;1.27;1.00;;;6.90;99.90;;;;;;5011390;28;20219;-89
2020/12/04 07:47:03;;;;;;;2.43;1.20;;;6.90;99.90;;;;;;5009076;28;20207;-80
2020/12/04 07:49:30;;;;;;;1.40;0.90;;;7.00;99.90;;;;;;5010757;28;20203;-85
2020/12/04 07:52:08;;;;;;;1.30;1.13;;;7.00;99.90;;;;;;5010651;28;20206;-85
2020/12/04 07:54:36;;;;;;;1.77;1.00;;;7.00;99.90;;;;;;5008789;28;20302;-80
2020/12/04 07:57:03;;;;;;;1.30;1.00;;;7.00;99.90;;;;;;5009236;28;20515;-86
2020/12/04 07:59:32;;;;;;;1.33;0.80;;;7.00;99.90;;;;;;5010272;28;20223;-82
2020/12/04 08:02:00;;;;;;;2.53;0.80;;;7.10;99.90;;;;;;5010287;28;20227;-87
2020/12/04 08:04:27;;;;;;;0.93;0.80;;;7.10;99.90;;;;;;5009908;28;20277;-81
2020/12/04 08:07:05;;;;;;;1.30;0.90;;;7.10;99.90;;;;;;5011069;28;20211;-84
2020/12/04 08:09:38;;;;;;;2.10;0.90;;;7.10;99.90;;;;;;5010876;28;20188;-87
2020/12/04 08:12:09;;;;;;;3.03;1.30;;;7.10;99.90;;;;;;5010203;28;20293;-80
2020/12/04 08:14:37;;;;;;;1.50;1.00;;;7.10;99.90;;;;;;5010204;28;20207;-80
2020/12/04 08:17:06;;;;;;;2.03;1.10;;;7.20;99.90;;;;;;5008239;28;20215;-84
2020/12/04 08:19:34;;;;;;;2.10;1.13;;;7.20;99.90;;;;;;5008912;28;20282;-87
2020/12/04 08:22:03;;;;;;;1.53;0.90;;;7.20;99.90;;;;;;5008682;28;20226;-83
2020/12/04 08:24:32;;;;;;;2.90;0.90;;;7.20;99.90;;;;;;5008219;28;20203;-81
2020/12/04 08:27:14;;;;;;;1.47;0.70;;;7.20;99.90;;;;;;5028086;28;20226;-78
2020/12/04 08:29:44;;;;;;;3.53;1.20;;;7.20;99.90;;;;;;5025710;28;20207;-83
2020/12/04 08:49:05;;;;;;;1.20;0.73;;;7.30;99.90;;;;;;4844495;29;20901;-90
2020/12/04 08:51:32;;;;;;;0.60;0.60;;;7.40;99.90;;;;;;4958807;28;20205;-79
2020/12/04 08:53:58;;;;;;;0.83;0.60;;;7.40;99.90;;;;;;4964600;28;20216;-85
2020/12/04 08:56:24;;;;;;;0.80;0.60;;;7.40;99.90;;;;;;4964850;28;21055;-81
2020/12/04 08:58:51;;;;;;;1.00;0.57;;;7.40;99.90;;;;;;4963798;28;20236;-85
2020/12/04 09:01:17;;;;;;;0.73;0.50;;;7.40;99.90;;;;;;4964345;28;20723;-79
2020/12/04 09:03:43;;;;;;;0.83;0.70;;;7.40;99.90;;;;;;4964544;28;20235;-81
2020/12/04 09:06:10;;;;;;;2.10;0.87;;;7.30;99.90;;;;;;4959817;28;20212;-81
2020/12/04 09:08:38;;;;;;;1.13;0.57;;;7.30;99.90;;;;;;4943485;29;20618;-82
2020/12/04 09:11:04;;;;;;;1.73;0.90;;;7.40;99.90;;;;;;4946036;29;20197;-84
2020/12/04 09:13:30;;;;;;;2.93;0.90;;;7.40;99.90;;;;;;4946257;29;20204;-81
2020/12/04 09:15:56;;;;;;;1.37;0.80;;;7.40;99.90;;;;;;4946689;29;20205;-83
2020/12/04 09:18:26;;;;;;;0.70;0.70;;;7.40;99.90;;;;;;4949822;29;20294;-84
2020/12/04 09:20:52;;;;;;;1.60;0.80;;;7.40;99.90;;;;;;4951482;29;20232;-90
2020/12/04 09:23:20;;;;;;;1.97;0.90;;;7.40;99.90;;;;;;4951366;29;20292;-89
2020/12/04 09:25:47;;;;;;;1.33;0.83;;;7.40;99.90;;;;;;4957536;28;20333;-78
2020/12/04 09:28:13;;;;;;;2.23;1.70;;;7.40;99.90;;;;;;4963916;28;20224;-82
2020/12/04 09:30:39;;;;;;;0.90;0.80;;;7.50;99.90;;;;;;4965340;28;20204;-79
2020/12/04 09:33:05;;;;;;;1.33;1.00;;;7.50;99.90;;;;;;4964156;28;20212;-82
2020/12/04 09:35:32;;;;;;;1.13;1.03;;;7.50;99.90;;;;;;4965007;28;20244;-84
2020/12/04 09:37:58;;;;;;;1.23;0.93;;;7.50;99.90;;;;;;4966715;28;20196;-82
2020/12/04 09:40:25;;;;;;;1.57;1.07;;;7.50;99.90;;;;;;4966442;28;20224;-78
2020/12/04 09:42:51;;;;;;;1.13;1.00;;;7.50;99.90;;;;;;5006212;28;20206;-83
2020/12/04 09:45:18;;;;;;;2.00;0.83;;;7.60;99.90;;;;;;5025291;28;20202;-79
2020/12/04 09:47:44;;;;;;;0.67;0.67;;;7.60;99.90;;;;;;5025235;28;20206;-79
2020/12/04 09:50:15;;;;;;;0.80;0.77;;;7.60;99.90;;;;;;5024421;28;20214;-78
2020/12/04 09:52:42;;;;;;;4.43;0.87;;;7.60;99.90;;;;;;5026346;28;20314;-78
2020/12/04 09:55:10;;;;;;;1.27;0.90;;;7.60;99.90;;;;;;5024943;28;20221;-79
2020/12/04 09:57:37;;;;;;;1.03;0.80;;;7.60;99.90;;;;;;5024903;28;20218;-77
2020/12/04 10:00:04;;;;;;;0.80;0.80;;;7.60;99.90;;;;;;5026713;28;20202;-78
2020/12/04 10:02:32;;;;;;;1.90;0.87;;;7.60;99.90;;;;;;5026818;28;20294;-80
2020/12/04 10:04:58;;;;;;;2.40;1.10;;;7.70;99.90;;;;;;5028720;28;20207;-90
2020/12/04 10:07:24;;;;;;;0.93;0.70;;;7.70;99.90;;;;;;5028412;28;20229;-85
2020/12/04 10:09:51;;;;;;;1.67;1.00;;;7.70;99.90;;;;;;5027693;28;20206;-86
2020/12/04 10:12:17;;;;;;;1.23;0.83;;;7.80;99.90;;;;;;5027571;28;20222;-82
2020/12/04 10:14:44;;;;;;;2.03;1.00;;;7.70;99.90;;;;;;5033362;28;20293;-82
2020/12/04 10:17:10;;;;;;;1.07;0.80;;;7.80;99.90;;;;;;5033377;28;20496;-80
2020/12/04 10:19:37;;;;;;;1.33;1.00;;;7.80;99.90;;;;;;5033129;28;20210;-81
2020/12/04 10:22:04;;;;;;;1.27;0.97;;;7.80;99.90;;;;;;5033612;28;20244;-91
2020/12/04 10:24:30;;;;;;;1.00;0.87;;;7.80;99.90;;;;;;5033301;28;20509;-91
2020/12/04 10:26:57;;;;;;;0.90;0.90;;;7.80;99.90;;;;;;5032812;28;20218;-87
2020/12/04 10:29:24;;;;;;;1.87;0.77;;;7.90;99.90;;;;;;5032161;28;20233;-80
2020/12/04 10:31:51;;;;;;;3.03;0.90;;;7.90;99.90;;;;;;5032148;28;20478;-92
2020/12/04 10:34:17;;;;;;;2.23;0.80;;;7.90;99.90;;;;;;5033303;28;20206;-80
2020/12/04 10:36:44;;;;;;;2.07;1.17;;;7.90;99.90;;;;;;5031843;28;20202;-80
2020/12/04 10:39:12;;;;;;;1.43;1.00;;;7.90;99.90;;;;;;5032380;28;20206;-82
2020/12/04 10:41:39;;;;;;;4.00;1.53;;;7.80;99.90;;;;;;5032862;28;20233;-92
2020/12/04 10:44:07;;;;;;;3.63;1.13;;;7.80;99.90;;;;;;5032041;28;20209;-95
2020/12/04 10:46:34;;;;;;;0.97;0.90;;;7.80;99.90;;;;;;5032827;28;20195;-89
2020/12/04 10:49:02;;;;;;;1.60;1.17;;;7.80;99.90;;;;;;5032527;28;20313;-87
2020/12/04 10:51:29;;;;;;;1.57;1.17;;;7.80;99.90;;;;;;5031794;28;20198;-78
2020/12/04 10:53:55;;;;;;;1.10;1.00;;;7.80;99.90;;;;;;5033199;28;20233;-88
2020/12/04 10:56:22;;;;;;;2.70;1.10;;;7.90;99.90;;;;;;5033128;28;20205;-92
2020/12/04 10:58:48;;;;;;;2.37;1.40;;;7.90;99.90;;;;;;5032501;28;20234;-89
2020/12/04 11:01:22;;;;;;;1.97;1.07;;;7.90;99.90;;;;;;5031055;28;20767;-90
2020/12/04 11:06:33;;;;;;;1.50;1.13;;;8.00;99.90;;;;;;5028151;28;20186;-81
2020/12/04 11:09:00;;;;;;;2.67;1.33;;;7.90;99.90;;;;;;5028322;28;20183;-93
2020/12/04 11:11:27;;;;;;;1.63;1.00;;;7.90;99.90;;;;;;5029370;28;20198;-77
2020/12/04 11:13:54;;;;;;;1.60;1.07;;;7.90;99.90;;;;;;5028987;28;20221;-76
2020/12/04 11:16:20;;;;;;;2.00;0.90;;;7.90;99.90;;;;;;5028867;28;20210;-76
2020/12/04 11:18:47;;;;;;;1.90;1.20;;;7.90;99.90;;;;;;5028445;28;20622;-80
2020/12/04 11:21:13;;;;;;;1.30;1.20;;;7.90;99.90;;;;;;5027800;28;20222;-92
2020/12/04 11:23:40;;;;;;;2.50;1.00;;;7.90;99.90;;;;;;5029609;28;20195;-90
2020/12/04 11:26:06;;;;;;;3.27;1.20;;;7.90;99.90;;;;;;5014266;28;20212;-80
2020/12/04 11:28:33;;;;;;;1.30;1.10;;;7.90;99.90;;;;;;5007389;28;20643;-75
2020/12/04 11:30:59;;;;;;;11.30;2.37;;;7.90;99.90;;;;;;5008355;28;20905;-79
2020/12/04 11:33:25;;;;;;;2.10;1.20;;;7.90;99.90;;;;;;5009882;28;20416;-86
2020/12/04 11:35:52;;;;;;;1.77;1.50;;;8.00;99.90;;;;;;5008348;28;20223;-76
2020/12/04 11:38:18;;;;;;;2.70;0.93;;;8.00;99.90;;;;;;5008322;28;20196;-79
2020/12/04 11:40:45;;;;;;;2.30;1.13;;;8.00;99.90;;;;;;5010284;28;20219;-87
2020/12/04 11:43:11;;;;;;;1.43;1.00;;;8.00;99.90;;;;;;5009499;28;20199;-78
2020/12/04 11:45:38;;;;;;;1.40;1.30;;;8.10;99.90;;;;;;5007670;28;20215;-78
2020/12/04 11:48:05;;;;;;;2.13;0.90;;;8.10;99.90;;;;;;5008410;28;20292;-80
2020/12/04 11:50:32;;;;;;;2.17;1.10;;;8.10;99.90;;;;;;5009949;28;20203;-85
2020/12/04 11:52:58;;;;;;;1.20;1.00;;;8.10;99.90;;;;;;5007215;28;20690;-85
2020/12/04 11:55:24;;;;;;;0.97;0.90;;;8.10;99.90;;;;;;5010289;28;20203;-81
2020/12/04 11:57:51;;;;;;;3.10;0.90;;;8.10;99.90;;;;;;5009890;28;20912;-87
2020/12/04 12:00:19;;;;;;;0.73;0.70;;;8.10;99.90;;;;;;5008340;28;20188;-91
2020/12/04 12:02:46;;;;;;;0.80;0.80;;;8.00;99.90;;;;;;5010976;28;20362;-86
2020/12/04 12:05:12;;;;;;;2.40;0.90;;;8.00;99.90;;;;;;5010804;28;20463;-89
2020/12/04 12:07:39;;;;;;;1.20;1.10;;;8.00;99.90;;;;;;5009104;28;20219;-78
2020/12/04 12:10:05;;;;;;;1.90;1.00;;;8.00;99.90;;;;;;5009001;28;20210;-89
2020/12/04 12:12:32;;;;;;;1.90;0.83;;;8.00;99.90;;;;;;5010885;28;20210;-88
2020/12/04 12:14:59;;;;;;;1.80;0.63;;;8.00;99.90;;;;;;5008997;28;20595;-86
2020/12/04 12:17:26;;;;;;;1.10;0.80;;;8.00;99.90;;;;;;5010547;28;20211;-90
2020/12/04 12:19:52;;;;;;;2.03;0.97;;;7.90;99.90;;;;;;5011365;28;20207;-88
2020/12/04 12:22:18;;;;;;;0.70;0.70;;;7.90;99.90;;;;;;5010196;28;20223;-89
2020/12/04 12:24:46;;;;;;;1.10;1.00;;;7.90;99.90;;;;;;5010644;28;20496;-85
2020/12/04 12:27:12;;;;;;;0.47;0.47;;;7.80;99.90;;;;;;5008257;28;20235;-78
2020/12/04 12:29:39;;;;;;;1.40;0.63;;;7.80;99.90;;;;;;5007241;28;20487;-77
2020/12/04 12:32:07;;;;;;;0.90;0.60;;;7.90;99.90;;;;;;5007733;28;20762;-78
2020/12/04 12:37:18;;;;;;;0.70;0.70;;;8.00;99.90;;;;;;5010588;28;20234;-83
2020/12/04 12:39:44;;;;;;;1.17;0.60;;;8.00;99.90;;;;;;5010417;28;20215;-83
2020/12/04 12:42:13;;;;;;;0.70;0.70;;;7.90;99.90;;;;;;5009135;28;20635;-82
2020/12/04 12:44:40;;;;;;;2.63;0.90;;;7.90;99.90;;;;;;5011222;28;20290;-84
2020/12/04 12:47:08;;;;;;;3.47;0.70;;;7.90;99.90;;;;;;5010574;28;20243;-85
2020/12/04 12:49:35;;;;;;;1.70;0.70;;;7.90;99.90;;;;;;5010488;28;20195;-85
2020/12/04 12:52:02;;;;;;;3.50;0.90;;;7.90;99.90;;;;;;5009545;28;20207;-86
2020/12/04 12:54:28;;;;;;;1.00;0.90;;;7.90;99.90;;;;;;5010236;28;20214;-85
2020/12/04 12:56:55;;;;;;;3.83;1.83;;;7.90;99.90;;;;;;5011947;28;20196;-87
2020/12/04 12:59:22;;;;;;;1.23;0.87;;;7.80;99.90;;;;;;5010842;28;20755;-86
2020/12/04 13:01:50;;;;;;;1.40;0.87;;;7.80;99.90;;;;;;5010861;28;20227;-87
2020/12/04 13:04:17;;;;;;;0.87;0.73;;;7.80;99.90;;;;;;5012017;28;20294;-89
2020/12/04 13:06:44;;;;;;;2.93;0.90;;;7.80;99.90;;;;;;5008241;28;20310;-80
2020/12/04 13:09:11;;;;;;;1.40;0.90;;;7.80;99.90;;;;;;5008179;28;20913;-84
2020/12/04 13:11:37;;;;;;;1.00;0.90;;;7.80;99.90;;;;;;5009513;28;20214;-84
2020/12/04 13:14:04;;;;;;;1.20;0.90;;;7.80;99.90;;;;;;5010187;28;20210;-80
2020/12/04 13:16:35;;;;;;;0.70;0.70;;;7.80;99.90;;;;;;5009718;28;20294;-83
2020/12/04 13:19:01;;;;;;;0.90;0.90;;;7.70;99.90;;;;;;5008040;28;20302;-84
2020/12/04 13:24:09;;;;;;;1.03;0.80;;;7.80;99.90;;;;;;5007798;28;20583;-86